createdAt,value
2019-05-25T00:00:27.333Z,34.10
2019-05-25T00:02:56.265Z,34.27
2019-05-25T00:05:25.024Z,35.30
2019-05-25T00:07:53.850Z,35.00
2019-05-25T00:10:22.645Z,36.07
2019-05-25T00:12:52.014Z,34.80
2019-05-25T00:15:21.462Z,34.73
2019-05-25T00:17:50.870Z,35.03
2019-05-25T00:20:19.682Z,51.40
2019-05-25T00:22:49.060Z,36.10
2019-05-25T00:25:17.799Z,34.50
2019-05-25T00:27:46.647Z,35.50
2019-05-25T00:30:16.477Z,33.43
2019-05-25T00:32:46.009Z,35.27
2019-05-25T00:35:14.870Z,33.40
2019-05-25T00:37:43.862Z,35.93
2019-05-25T00:40:12.861Z,35.07
2019-05-25T00:42:41.652Z,32.90
2019-05-25T00:45:11.038Z,32.63
2019-05-25T00:47:40.101Z,33.00
2019-05-25T00:50:10.179Z,33.77
2019-05-25T00:52:39.062Z,33.00
2019-05-25T00:55:08.395Z,32.00
2019-05-25T00:57:37.258Z,31.67
2019-05-25T01:00:07.101Z,30.80
2019-05-25T01:02:36.619Z,36.30
2019-05-25T01:05:06.041Z,31.70
2019-05-25T01:07:35.143Z,34.63
2019-05-25T01:10:04.906Z,32.03
2019-05-25T01:12:34.109Z,31.90
2019-05-25T01:15:03.922Z,34.83
2019-05-25T01:17:33.182Z,34.80
2019-05-25T01:20:01.980Z,32.83
2019-05-25T01:22:30.963Z,32.13
2019-05-25T01:24:59.947Z,32.73
2019-05-25T01:27:28.674Z,34.10
2019-05-25T01:29:57.406Z,32.40
2019-05-25T01:32:26.664Z,33.80
2019-05-25T01:34:56.747Z,32.20
2019-05-25T01:37:26.377Z,34.53
2019-05-25T01:39:55.823Z,35.20
2019-05-25T01:42:24.616Z,33.03
2019-05-25T01:44:53.955Z,32.30
2019-05-25T01:47:23.163Z,30.47
2019-05-25T01:49:51.934Z,29.77
2019-05-25T01:52:20.777Z,30.37
2019-05-25T01:54:59.560Z,34.63
2019-05-25T01:57:20.780Z,32.20
2019-05-25T01:59:49.783Z,32.07
2019-05-25T02:02:18.848Z,31.73
2019-05-25T02:04:47.749Z,31.03
2019-05-25T02:07:16.802Z,31.27
2019-05-25T02:09:45.973Z,30.90
2019-05-25T02:12:16.024Z,35.67
2019-05-25T02:14:44.775Z,33.57
2019-05-25T02:17:13.567Z,31.37
2019-05-25T02:19:42.839Z,34.20
2019-05-25T02:22:11.652Z,35.57
2019-05-25T02:24:40.992Z,33.03
2019-05-25T02:27:10.343Z,31.90
2019-05-25T02:29:39.466Z,34.57
2019-05-25T02:32:08.729Z,30.50
2019-05-25T02:34:38.049Z,32.27
2019-05-25T02:37:07.375Z,36.60
2019-05-25T02:39:36.699Z,32.13
2019-05-25T02:42:05.923Z,32.57
2019-05-25T02:44:34.734Z,31.70
2019-05-25T02:47:03.593Z,31.17
2019-05-25T02:49:32.479Z,34.60
2019-05-25T02:52:01.570Z,31.23
2019-05-25T02:54:30.365Z,32.33
2019-05-25T02:56:59.389Z,35.17
2019-05-25T02:59:28.823Z,32.87
2019-05-25T03:01:58.228Z,31.57
2019-05-25T03:04:26.983Z,29.50
2019-05-25T03:06:56.068Z,32.30
2019-05-25T03:09:28.179Z,33.77
2019-05-25T03:11:59.402Z,32.63
2019-05-25T03:14:28.148Z,31.23
2019-05-25T03:16:56.883Z,30.00
2019-05-25T03:19:26.124Z,31.50
2019-05-25T03:21:55.202Z,33.10
2019-05-25T03:24:23.960Z,35.97
2019-05-25T03:26:52.930Z,31.23
2019-05-25T03:29:22.097Z,32.00
2019-05-25T03:31:51.066Z,29.37
2019-05-25T03:34:19.872Z,32.70
2019-05-25T03:36:49.043Z,30.67
2019-05-25T03:39:17.955Z,35.57
2019-05-25T03:41:47.039Z,36.03
2019-05-25T03:44:16.043Z,31.83
2019-05-25T03:46:44.743Z,36.90
2019-05-25T03:49:13.483Z,38.87
2019-05-25T03:51:42.279Z,34.97
2019-05-25T03:54:11.005Z,38.60
2019-05-25T03:56:39.715Z,44.07
2019-05-25T03:59:08.760Z,42.83
2019-05-25T04:01:37.537Z,35.97
2019-05-25T04:04:06.539Z,40.17
2019-05-25T04:06:35.455Z,38.43
2019-05-25T04:09:06.163Z,42.10
2019-05-25T04:11:35.049Z,43.90
2019-05-25T04:14:03.901Z,36.10
2019-05-25T04:16:32.602Z,39.23
2019-05-25T04:19:01.412Z,35.97
2019-05-25T04:21:30.378Z,40.47
2019-05-25T04:23:59.180Z,40.37
2019-05-25T04:26:28.310Z,41.73
2019-05-25T04:28:57.785Z,39.77
2019-05-25T04:31:26.624Z,33.27
2019-05-25T04:33:55.435Z,35.60
2019-05-25T04:36:24.452Z,36.67
2019-05-25T04:38:53.312Z,37.70
2019-05-25T04:41:22.225Z,34.80
2019-05-25T04:43:51.035Z,36.67
2019-05-25T04:46:21.661Z,33.90
2019-05-25T04:48:51.501Z,38.33
2019-05-25T04:51:20.960Z,34.20
2019-05-25T04:53:49.973Z,38.43
2019-05-25T04:56:18.822Z,35.07
2019-05-25T04:58:48.259Z,31.80
2019-05-25T05:01:17.111Z,33.43
2019-05-25T05:03:46.484Z,35.53
2019-05-25T05:06:16.512Z,33.60
2019-05-25T05:08:45.589Z,36.50
2019-05-25T05:11:18.656Z,34.27
2019-05-25T05:13:48.721Z,34.37
2019-05-25T05:16:17.787Z,33.10
2019-05-25T05:18:47.461Z,33.77
2019-05-25T05:21:17.635Z,33.70
2019-05-25T05:23:46.780Z,33.83
2019-05-25T05:26:15.556Z,33.20
2019-05-25T05:28:45.157Z,33.67
2019-05-25T05:31:23.153Z,31.67
2019-05-25T05:33:44.642Z,36.13
2019-05-25T05:36:15.622Z,32.53
2019-05-25T05:38:44.774Z,34.57
2019-05-25T05:41:15.478Z,39.03
2019-05-25T05:43:47.279Z,56.83
2019-05-25T05:46:18.094Z,35.40
2019-05-25T05:48:50.616Z,35.60
2019-05-25T05:51:22.033Z,35.87
2019-05-25T05:53:56.095Z,35.63
2019-05-25T05:56:24.981Z,35.67
2019-05-25T05:58:53.888Z,36.00
2019-05-25T06:01:22.778Z,34.50
2019-05-25T06:03:52.024Z,34.53
2019-05-25T06:06:20.900Z,37.47
2019-05-25T06:08:49.818Z,35.83
2019-05-25T06:11:18.650Z,36.60
2019-05-25T06:13:47.563Z,36.57
2019-05-25T06:16:16.433Z,35.50
2019-05-25T06:18:45.223Z,36.07
2019-05-25T06:21:14.242Z,63.93
2019-05-25T06:23:43.068Z,39.40
2019-05-25T06:26:12.103Z,39.17
2019-05-25T06:28:41.264Z,35.40
2019-05-25T06:31:10.167Z,34.00
2019-05-25T06:33:38.925Z,35.30
2019-05-25T06:36:07.716Z,35.50
2019-05-25T06:38:36.891Z,35.23
2019-05-25T06:41:08.561Z,35.80
2019-05-25T06:43:36.827Z,38.30
2019-05-25T06:46:05.669Z,49.00
2019-05-25T06:48:34.599Z,65.57
2019-05-25T06:51:03.723Z,42.50
2019-05-25T06:53:32.573Z,37.30
2019-05-25T06:56:01.414Z,43.10
2019-05-25T06:58:30.166Z,39.43
2019-05-25T07:00:59.046Z,34.43
2019-05-25T07:03:27.783Z,37.50
2019-05-25T07:05:56.567Z,34.60
2019-05-25T07:08:25.386Z,35.37
2019-05-25T07:10:54.124Z,34.67
2019-05-25T07:13:22.902Z,40.70
2019-05-25T07:15:51.731Z,32.63
2019-05-25T07:18:20.619Z,49.10
2019-05-25T07:20:49.347Z,54.10
2019-05-25T07:23:18.152Z,35.03
2019-05-25T07:25:46.839Z,32.83
2019-05-25T07:28:15.926Z,32.47
2019-05-25T07:30:46.606Z,28.97
2019-05-25T07:33:15.141Z,30.87
2019-05-25T07:35:43.940Z,30.00
2019-05-25T07:38:12.697Z,31.00
2019-05-25T07:40:41.547Z,31.63
2019-05-25T07:43:10.331Z,34.30
2019-05-25T07:45:39.157Z,32.33
2019-05-25T07:48:07.962Z,32.67
2019-05-25T07:50:36.815Z,31.03
2019-05-25T07:53:05.567Z,31.43
2019-05-25T07:55:34.333Z,31.53
2019-05-25T07:58:16.566Z,29.97
2019-05-25T08:00:33.741Z,36.23
2019-05-25T08:03:02.516Z,32.43
2019-05-25T08:05:31.267Z,32.30
2019-05-25T08:08:00.899Z,30.77
2019-05-25T08:10:29.821Z,31.50
2019-05-25T08:12:58.801Z,32.07
2019-05-25T08:15:27.610Z,38.70
2019-05-25T08:17:56.640Z,44.63
2019-05-25T08:20:25.496Z,44.83
2019-05-25T08:22:54.212Z,37.07
2019-05-25T08:25:23.086Z,31.93
2019-05-25T08:27:51.875Z,35.50
2019-05-25T08:30:20.801Z,32.47
2019-05-25T08:32:49.650Z,29.27
2019-05-25T08:35:18.484Z,31.60
2019-05-25T08:37:47.250Z,31.93
2019-05-25T08:40:15.964Z,32.47
2019-05-25T08:42:44.761Z,33.60
2019-05-25T08:45:13.975Z,33.30
2019-05-25T08:47:42.671Z,32.40
2019-05-25T08:50:11.557Z,30.37
2019-05-25T08:52:40.309Z,30.87
2019-05-25T08:55:09.515Z,35.00
2019-05-25T08:57:38.218Z,33.80
2019-05-25T09:00:07.758Z,32.37
2019-05-25T09:02:36.475Z,31.20
2019-05-25T09:05:06.207Z,31.23
2019-05-25T09:07:34.900Z,29.10
2019-05-25T09:10:04.220Z,29.63
2019-05-25T09:12:33.392Z,29.77
2019-05-25T09:15:05.708Z,28.63
2019-05-25T09:17:32.795Z,30.67
2019-05-25T09:20:01.540Z,29.47
2019-05-25T09:22:30.325Z,28.63
2019-05-25T09:24:59.453Z,28.93
2019-05-25T09:27:28.440Z,27.73
2019-05-25T09:29:57.263Z,27.97
2019-05-25T09:32:26.070Z,27.23
2019-05-25T09:34:54.884Z,37.27
2019-05-25T09:37:23.608Z,31.10
2019-05-25T09:39:52.342Z,29.77
2019-05-25T09:42:21.154Z,28.07
2019-05-25T09:44:50.101Z,29.57
2019-05-25T09:47:18.938Z,29.37
2019-05-25T09:49:47.994Z,28.43
2019-05-25T09:52:16.880Z,28.67
2019-05-25T09:54:45.616Z,29.20
2019-05-25T09:57:14.440Z,28.73
2019-05-25T09:59:43.413Z,28.70
2019-05-25T10:02:12.233Z,28.13
2019-05-25T10:04:41.016Z,30.50
2019-05-25T10:07:09.903Z,30.47
2019-05-25T10:09:40.201Z,30.47
2019-05-25T10:12:09.247Z,33.87
2019-05-25T10:14:38.307Z,30.27
2019-05-25T10:17:07.063Z,32.43
2019-05-25T10:19:36.205Z,30.83
2019-05-25T10:22:05.568Z,29.40
2019-05-25T10:24:34.268Z,28.90
2019-05-25T10:27:03.091Z,30.53
2019-05-25T10:29:37.049Z,30.73
2019-05-25T10:32:02.528Z,30.40
2019-05-25T10:34:31.402Z,34.20
2019-05-25T10:37:00.503Z,37.63
2019-05-25T10:39:29.605Z,33.23
2019-05-25T10:41:58.356Z,30.57
2019-05-25T10:44:27.083Z,32.73
2019-05-25T10:46:55.848Z,29.90
2019-05-25T10:49:24.583Z,30.30
2019-05-25T10:51:53.324Z,29.70
2019-05-25T10:54:22.114Z,29.67
2019-05-25T10:56:52.336Z,29.83
2019-05-25T10:59:21.107Z,32.03
2019-05-25T11:01:49.984Z,30.30
2019-05-25T11:04:18.819Z,33.90
2019-05-25T11:06:47.670Z,31.13
2019-05-25T11:09:16.469Z,30.10
2019-05-25T11:11:45.292Z,29.30
2019-05-25T11:14:15.053Z,31.13
2019-05-25T11:16:44.152Z,35.47
2019-05-25T11:19:13.093Z,32.63
2019-05-25T11:21:42.202Z,31.00
2019-05-25T11:24:11.288Z,28.50
2019-05-25T11:26:40.113Z,35.97
2019-05-25T11:29:08.812Z,30.07
2019-05-25T11:31:37.592Z,29.93
2019-05-25T11:34:06.451Z,31.33
2019-05-25T11:36:35.291Z,33.50
2019-05-25T11:39:05.410Z,29.33
2019-05-25T11:41:34.142Z,30.70
2019-05-25T11:44:03.227Z,31.10
2019-05-25T11:46:31.924Z,29.60
2019-05-25T11:49:00.672Z,30.80
2019-05-25T11:51:29.429Z,29.77
2019-05-25T11:53:58.203Z,29.60
2019-05-25T11:56:27.103Z,31.30
2019-05-25T11:58:55.938Z,31.67
2019-05-25T12:01:24.659Z,31.63
2019-05-25T12:03:53.744Z,30.77
2019-05-25T12:06:22.933Z,31.03
2019-05-25T12:08:51.735Z,32.00
2019-05-25T12:11:20.624Z,31.50
2019-05-25T12:13:49.727Z,32.13
2019-05-25T12:16:18.628Z,35.50
2019-05-25T12:18:47.759Z,32.40
2019-05-25T12:21:17.080Z,35.37
2019-05-25T12:23:46.042Z,38.07
2019-05-25T12:26:14.848Z,31.83
2019-05-25T12:28:44.142Z,31.27
2019-05-25T12:31:13.048Z,32.90
2019-05-25T12:33:41.910Z,29.80
2019-05-25T12:36:11.541Z,29.87
2019-05-25T12:38:40.315Z,28.47
2019-05-25T12:41:09.383Z,28.50
2019-05-25T12:43:38.159Z,30.17
2019-05-25T12:46:07.784Z,31.37
2019-05-25T12:48:36.896Z,30.00
2019-05-25T12:51:05.667Z,31.43
2019-05-25T12:53:34.428Z,30.63
2019-05-25T12:56:03.171Z,29.80
2019-05-25T12:58:31.906Z,30.83
2019-05-25T13:01:00.653Z,30.07
2019-05-25T13:03:29.402Z,28.97
2019-05-25T13:05:58.182Z,31.00
2019-05-25T13:08:26.903Z,30.90
2019-05-25T13:10:55.771Z,35.83
2019-05-25T13:13:24.478Z,30.10
2019-05-25T13:15:53.248Z,30.80
2019-05-25T13:18:22.333Z,29.77
2019-05-25T13:20:51.151Z,31.83
2019-05-25T13:23:19.842Z,30.70
2019-05-25T13:25:48.825Z,31.07
2019-05-25T13:28:17.523Z,30.70
2019-05-25T13:30:46.370Z,30.83
2019-05-25T13:33:15.151Z,29.60
2019-05-25T13:35:43.922Z,30.93
2019-05-25T13:38:12.692Z,30.23
2019-05-25T13:40:41.692Z,30.83
2019-05-25T13:43:10.452Z,29.70
2019-05-25T13:45:39.264Z,30.73
2019-05-25T13:48:08.016Z,31.17
2019-05-25T13:50:36.753Z,31.50
2019-05-25T13:53:05.491Z,30.17
2019-05-25T13:55:34.263Z,31.17
2019-05-25T13:58:03.066Z,30.97
2019-05-25T14:00:31.794Z,29.77
2019-05-25T14:03:00.559Z,31.20
2019-05-25T14:05:29.352Z,50.23
2019-05-25T14:07:58.075Z,53.50
2019-05-25T14:10:26.835Z,41.43
2019-05-25T14:12:55.543Z,30.77
2019-05-25T14:15:24.476Z,31.57
2019-05-25T14:17:53.208Z,33.63
2019-05-25T14:20:22.104Z,32.20
2019-05-25T14:22:51.287Z,29.07
2019-05-25T14:25:20.411Z,29.73
2019-05-25T14:27:49.243Z,30.60
2019-05-25T14:30:19.451Z,30.20
2019-05-25T14:32:48.296Z,32.10
2019-05-25T14:35:17.191Z,33.20
2019-05-25T14:37:45.910Z,31.90
2019-05-25T14:40:15.015Z,33.60
2019-05-25T14:42:43.780Z,31.27
2019-05-25T14:45:13.120Z,30.07
2019-05-25T14:47:41.904Z,30.60
2019-05-25T14:50:11.558Z,30.90
2019-05-25T14:52:43.256Z,31.83
2019-05-25T14:55:11.170Z,32.27
2019-05-25T14:57:40.202Z,29.70
2019-05-25T15:00:11.961Z,36.07
2019-05-25T15:02:40.907Z,34.53
2019-05-25T15:05:09.883Z,32.80
2019-05-25T15:07:38.660Z,31.47
2019-05-25T15:10:08.253Z,31.97
2019-05-25T15:12:37.004Z,31.60
2019-05-25T15:15:06.572Z,35.53
2019-05-25T15:17:37.406Z,32.27
2019-05-25T15:20:06.368Z,32.60
2019-05-25T15:22:35.129Z,40.23
2019-05-25T15:25:04.604Z,34.00
2019-05-25T15:27:33.843Z,37.67
2019-05-25T15:30:02.855Z,36.90
2019-05-25T15:32:32.631Z,34.57
2019-05-25T15:35:01.382Z,34.30
2019-05-25T15:37:30.122Z,36.70
2019-05-25T15:39:58.928Z,36.47
2019-05-25T15:42:29.505Z,35.63
2019-05-25T15:44:58.311Z,32.93
2019-05-25T15:47:27.116Z,34.50
2019-05-25T15:49:55.802Z,35.73
2019-05-25T15:52:24.554Z,35.87
2019-05-25T15:54:53.319Z,39.57
2019-05-25T15:57:22.089Z,36.30
2019-05-25T15:59:51.369Z,35.60
2019-05-25T16:02:35.684Z,37.83
2019-05-25T16:04:51.820Z,32.20
2019-05-25T16:07:20.585Z,36.20
2019-05-25T16:09:49.744Z,36.57
2019-05-25T16:12:18.585Z,35.43
2019-05-25T16:14:47.693Z,36.50
2019-05-25T16:17:16.531Z,45.63
2019-05-25T16:19:45.302Z,39.53
2019-05-25T16:22:14.076Z,35.60
2019-05-25T16:24:42.850Z,36.37
2019-05-25T16:27:11.647Z,37.17
2019-05-25T16:29:40.720Z,41.20
2019-05-25T16:32:09.452Z,41.40
2019-05-25T16:34:38.309Z,37.10
2019-05-25T16:37:07.411Z,44.30
2019-05-25T16:39:36.283Z,39.37
2019-05-25T16:42:05.279Z,39.33
2019-05-25T16:44:34.113Z,42.10
2019-05-25T16:47:03.107Z,36.97
2019-05-25T16:49:31.909Z,36.97
2019-05-25T16:52:00.965Z,56.63
2019-05-25T16:54:29.700Z,44.43
2019-05-25T16:56:58.540Z,39.50
2019-05-25T16:59:27.235Z,41.97
2019-05-25T17:01:56.062Z,38.47
2019-05-25T17:04:25.183Z,35.93
2019-05-25T17:06:53.982Z,45.47
2019-05-25T17:09:22.736Z,47.03
2019-05-25T17:11:51.615Z,37.30
2019-05-25T17:14:20.689Z,40.47
2019-05-25T17:16:49.466Z,37.30
2019-05-25T17:19:18.496Z,39.50
2019-05-25T17:21:47.284Z,43.70
2019-05-25T17:24:16.040Z,38.50
2019-05-25T17:26:44.782Z,38.23
2019-05-25T17:29:13.616Z,42.93
2019-05-25T17:31:42.343Z,39.13
2019-05-25T17:34:11.127Z,39.30
2019-05-25T17:36:40.167Z,47.10
2019-05-25T17:39:09.288Z,46.00
2019-05-25T17:41:38.017Z,43.87
2019-05-25T17:44:06.822Z,55.97
2019-05-25T17:46:35.569Z,38.57
2019-05-25T17:49:04.445Z,37.60
2019-05-25T17:51:33.176Z,37.00
2019-05-25T17:54:02.280Z,34.57
2019-05-25T17:56:31.013Z,34.43
2019-05-25T17:58:59.827Z,33.87
2019-05-25T18:01:28.524Z,34.17
2019-05-25T18:04:06.227Z,32.97
2019-05-25T18:06:28.140Z,32.43
2019-05-25T18:08:56.928Z,33.97
2019-05-25T18:11:25.888Z,35.53
2019-05-25T18:13:54.688Z,34.07
2019-05-25T18:16:23.508Z,34.17
2019-05-25T18:18:52.336Z,33.87
2019-05-25T18:21:21.388Z,32.50
2019-05-25T18:23:50.629Z,33.37
2019-05-25T18:26:19.392Z,33.13
2019-05-25T18:28:48.150Z,33.60
2019-05-25T18:31:16.945Z,30.77
2019-05-25T18:33:45.943Z,33.03
2019-05-25T18:36:14.692Z,34.80
2019-05-25T18:38:43.394Z,31.63
2019-05-25T18:41:12.206Z,30.50
2019-05-25T18:43:40.972Z,31.33
2019-05-25T18:46:10.409Z,31.13
2019-05-25T18:48:39.220Z,31.43
2019-05-25T18:51:08.060Z,31.27
2019-05-25T18:53:36.763Z,31.70
2019-05-25T18:56:05.531Z,43.30
2019-05-25T18:58:34.388Z,31.37
2019-05-25T19:01:03.189Z,31.40
2019-05-25T19:03:31.887Z,30.47
2019-05-25T19:06:00.707Z,30.73
2019-05-25T19:08:29.819Z,32.20
2019-05-25T19:10:58.652Z,30.40
2019-05-25T19:13:27.512Z,30.07
2019-05-25T19:15:56.267Z,31.40
2019-05-25T19:18:25.020Z,30.30
2019-05-25T19:20:53.804Z,30.90
2019-05-25T19:23:22.891Z,31.70
2019-05-25T19:25:51.667Z,30.97
2019-05-25T19:28:20.726Z,33.40
2019-05-25T19:30:49.613Z,30.30
2019-05-25T19:33:18.412Z,32.37
2019-05-25T19:35:47.263Z,32.83
2019-05-25T19:38:15.971Z,32.63
2019-05-25T19:40:44.719Z,40.53
2019-05-25T19:43:13.519Z,39.30
2019-05-25T19:45:42.332Z,34.20
2019-05-25T19:48:11.148Z,31.37
2019-05-25T19:50:39.905Z,33.47
2019-05-25T19:53:08.721Z,38.90
2019-05-25T19:55:37.484Z,32.17
2019-05-25T19:58:06.315Z,32.63
2019-05-25T20:00:35.100Z,36.07
2019-05-25T20:03:03.834Z,35.70
2019-05-25T20:05:32.575Z,34.37
2019-05-25T20:08:01.446Z,32.50
2019-05-25T20:10:30.590Z,32.50
2019-05-25T20:12:59.427Z,32.80
2019-05-25T20:15:28.316Z,33.63
2019-05-25T20:17:57.066Z,32.87
2019-05-25T20:20:25.878Z,37.17
2019-05-25T20:22:54.709Z,33.00
2019-05-25T20:25:23.485Z,34.10
2019-05-25T20:27:52.592Z,32.73
2019-05-25T20:30:21.359Z,33.23
2019-05-25T20:32:50.743Z,31.73
2019-05-25T20:35:32.580Z,32.40
2019-05-25T20:37:50.578Z,34.57
2019-05-25T20:40:19.374Z,34.73
2019-05-25T20:42:48.235Z,33.90
2019-05-25T20:45:17.916Z,35.30
2019-05-25T20:47:46.647Z,33.03
2019-05-25T20:50:15.632Z,34.20
2019-05-25T20:52:44.382Z,31.17
2019-05-25T20:55:13.369Z,39.90
2019-05-25T20:57:42.180Z,32.90
2019-05-25T21:00:11.554Z,33.57
2019-05-25T21:02:40.306Z,35.03
2019-05-25T21:05:09.603Z,32.63
2019-05-25T21:07:38.302Z,31.80
2019-05-25T21:10:07.872Z,33.40
2019-05-25T21:12:36.730Z,32.47
2019-05-25T21:15:05.925Z,34.07
2019-05-25T21:17:34.957Z,31.50
2019-05-25T21:20:04.213Z,31.40
2019-05-25T21:22:33.049Z,32.57
2019-05-25T21:25:05.997Z,31.30
2019-05-25T21:27:32.496Z,34.07
2019-05-25T21:30:01.630Z,30.83
2019-05-25T21:32:30.448Z,33.17
2019-05-25T21:34:59.414Z,34.37
2019-05-25T21:37:28.210Z,32.40
2019-05-25T21:39:57.051Z,30.47
2019-05-25T21:42:25.781Z,30.23
2019-05-25T21:44:54.683Z,30.03
2019-05-25T21:47:23.700Z,30.23
2019-05-25T21:49:52.632Z,29.13
2019-05-25T21:52:21.445Z,29.63
2019-05-25T21:54:50.425Z,30.80
2019-05-25T21:57:19.331Z,29.13
2019-05-25T21:59:48.706Z,29.90
2019-05-25T22:02:17.575Z,27.20
2019-05-25T22:04:46.557Z,29.43
2019-05-25T22:07:15.547Z,29.53
2019-05-25T22:09:44.366Z,28.07
2019-05-25T22:12:13.242Z,29.87
2019-05-25T22:14:42.320Z,29.63
2019-05-25T22:17:11.440Z,26.63
2019-05-25T22:19:40.209Z,28.70
2019-05-25T22:22:09.063Z,28.90
2019-05-25T22:24:38.296Z,26.83
2019-05-25T22:27:07.281Z,27.33
2019-05-25T22:29:39.002Z,28.00
2019-05-25T22:32:08.042Z,28.57
2019-05-25T22:34:37.337Z,28.00
2019-05-25T22:37:06.095Z,26.77
2019-05-25T22:39:35.027Z,25.67
2019-05-25T22:42:03.899Z,26.80
2019-05-25T22:44:32.822Z,27.13
2019-05-25T22:47:01.716Z,26.27
2019-05-25T22:49:31.205Z,26.40
2019-05-25T22:51:59.952Z,27.73
2019-05-25T22:54:29.057Z,26.10
2019-05-25T22:56:57.777Z,42.00
2019-05-25T22:59:26.594Z,29.80
2019-05-25T23:01:55.904Z,28.17
2019-05-25T23:04:24.827Z,26.20
2019-05-25T23:06:58.124Z,25.97
2019-05-25T23:09:24.388Z,26.77
2019-05-25T23:11:53.227Z,26.20
2019-05-25T23:14:22.026Z,26.23
2019-05-25T23:16:50.927Z,28.10
2019-05-25T23:19:20.189Z,27.60
2019-05-25T23:21:49.298Z,27.33
2019-05-25T23:24:18.181Z,27.83
2019-05-25T23:26:46.907Z,29.87
2019-05-25T23:29:15.693Z,27.40
2019-05-25T23:31:44.724Z,26.53
2019-05-25T23:34:13.499Z,26.50
2019-05-25T23:36:43.290Z,28.17
2019-05-25T23:39:12.736Z,27.37
2019-05-25T23:41:41.454Z,27.33
2019-05-25T23:44:10.442Z,28.67
2019-05-25T23:46:39.162Z,28.23
2019-05-25T23:49:07.940Z,27.47
2019-05-25T23:51:37.430Z,26.97
2019-05-25T23:54:06.418Z,27.27
2019-05-25T23:56:35.482Z,28.93
2019-05-25T23:59:04.347Z,27.13
